createdAt,value
2022-10-17T00:00:53.537Z,14.00
2022-10-17T00:03:20.173Z,14.10
2022-10-17T00:05:48.147Z,14.10
2022-10-17T00:08:17.095Z,14.00
2022-10-17T00:10:43.796Z,14.00
2022-10-17T00:13:11.513Z,14.00
2022-10-17T00:15:38.520Z,13.90
2022-10-17T00:18:05.177Z,13.80
2022-10-17T00:24:32.863Z,13.60
2022-10-17T00:26:59.558Z,13.50
2022-10-17T00:29:26.209Z,13.40
2022-10-17T00:31:57.146Z,13.40
2022-10-17T00:34:24.653Z,13.50
2022-10-17T00:36:51.639Z,13.50
2022-10-17T00:39:18.366Z,13.50
2022-10-17T00:41:45.005Z,13.60
2022-10-17T00:44:29.779Z,13.60
2022-10-17T00:47:03.995Z,13.50
2022-10-17T00:49:35.769Z,13.60
2022-10-17T00:52:13.272Z,13.60
2022-10-17T00:54:54.138Z,13.60
2022-10-17T00:57:21.052Z,13.50
2022-10-17T00:59:52.527Z,13.50
2022-10-17T01:02:21.806Z,13.50
2022-10-17T01:04:52.115Z,13.50
2022-10-17T01:07:18.848Z,13.50
2022-10-17T01:09:46.911Z,13.40
2022-10-17T01:12:36.023Z,13.40
2022-10-17T01:15:22.194Z,13.40
2022-10-17T01:18:03.868Z,13.40
2022-10-17T01:21:08.389Z,13.40
2022-10-17T01:24:05.989Z,13.30
2022-10-17T01:27:00.795Z,13.30
2022-10-17T01:30:12.563Z,13.30
2022-10-17T01:33:02.586Z,13.30
2022-10-17T01:35:54.030Z,13.30
2022-10-17T01:38:34.416Z,13.30
2022-10-17T01:41:11.481Z,13.30
2022-10-17T01:43:46.074Z,13.20
2022-10-17T01:46:35.908Z,13.20
2022-10-17T01:49:03.928Z,13.20
2022-10-17T01:51:44.894Z,13.10
2022-10-17T01:54:22.617Z,13.10
2022-10-17T01:56:55.189Z,13.10
2022-10-17T01:59:26.945Z,13.10
2022-10-17T02:01:56.168Z,13.10
2022-10-17T02:04:22.926Z,13.10
2022-10-17T02:06:49.634Z,13.10
2022-10-17T02:09:26.980Z,13.10
2022-10-17T02:12:15.836Z,13.10
2022-10-17T02:15:10.487Z,13.10
2022-10-17T02:18:05.204Z,13.00
2022-10-17T02:20:51.643Z,13.00
2022-10-17T02:26:04.517Z,12.90
2022-10-17T02:28:47.277Z,12.80
2022-10-17T02:31:21.539Z,12.80
2022-10-17T02:33:59.646Z,12.70
2022-10-17T02:36:40.980Z,12.70
2022-10-17T02:39:09.682Z,12.80
2022-10-17T02:41:38.183Z,12.70
2022-10-17T02:44:06.686Z,12.70
2022-10-17T02:46:34.929Z,12.70
2022-10-17T02:49:17.731Z,12.70
2022-10-17T02:51:57.509Z,12.70
2022-10-17T02:54:44.586Z,12.80
2022-10-17T02:57:14.303Z,12.70
2022-10-17T02:59:43.482Z,12.70
2022-10-17T03:02:10.098Z,12.70
2022-10-17T03:04:37.139Z,12.70
2022-10-17T03:07:04.069Z,12.70
2022-10-17T03:09:30.694Z,12.70
2022-10-17T03:11:57.323Z,12.80
2022-10-17T03:14:23.951Z,12.80
2022-10-17T03:16:50.550Z,12.80
2022-10-17T03:19:17.174Z,12.80
2022-10-17T03:21:43.810Z,12.80
2022-10-17T03:24:10.437Z,12.80
2022-10-17T03:26:37.156Z,12.80
2022-10-17T03:29:03.914Z,12.80
2022-10-17T03:31:30.667Z,12.80
2022-10-17T03:33:57.385Z,12.70
2022-10-17T03:36:24.010Z,12.70
2022-10-17T03:38:54.736Z,12.70
2022-10-17T03:41:21.667Z,12.60
2022-10-17T03:43:48.371Z,12.60
2022-10-17T03:46:15.069Z,12.60
2022-10-17T03:48:41.741Z,12.60
2022-10-17T03:51:09.699Z,12.50
2022-10-17T03:53:36.494Z,12.40
2022-10-17T03:56:15.041Z,12.40
2022-10-17T03:58:42.497Z,12.40
2022-10-17T04:01:11.684Z,12.40
2022-10-17T04:03:38.816Z,12.40
2022-10-17T04:06:06.614Z,12.40
2022-10-17T04:08:34.103Z,12.40
2022-10-17T04:11:02.669Z,12.40
2022-10-17T04:13:29.945Z,12.30
2022-10-17T04:15:58.760Z,12.30
2022-10-17T04:18:25.717Z,12.30
2022-10-17T04:20:52.462Z,12.30
2022-10-17T04:23:20.095Z,12.30
2022-10-17T04:25:46.758Z,12.30
2022-10-17T04:28:13.402Z,12.30
2022-10-17T04:30:42.356Z,12.30
2022-10-17T04:33:11.760Z,12.40
2022-10-17T04:35:38.377Z,12.40
2022-10-17T04:38:04.992Z,12.50
2022-10-17T04:40:31.671Z,12.50
2022-10-17T04:42:58.287Z,12.50
2022-10-17T04:45:24.953Z,12.60
2022-10-17T04:47:51.563Z,12.60
2022-10-17T04:50:18.810Z,12.60
2022-10-17T04:52:45.406Z,12.60
2022-10-17T04:55:12.065Z,12.70
2022-10-17T04:57:38.682Z,12.60
2022-10-17T05:00:05.852Z,12.60
2022-10-17T05:02:32.595Z,12.60
2022-10-17T05:04:59.236Z,12.60
2022-10-17T05:07:25.842Z,12.60
2022-10-17T05:09:52.464Z,12.60
2022-10-17T05:12:19.074Z,12.60
2022-10-17T05:14:45.711Z,12.60
2022-10-17T05:17:12.327Z,12.60
2022-10-17T05:19:38.937Z,12.70
2022-10-17T05:22:05.612Z,12.70
2022-10-17T05:24:32.221Z,12.60
2022-10-17T05:26:58.982Z,12.60
2022-10-17T05:29:25.673Z,12.70
2022-10-17T05:31:52.412Z,12.70
2022-10-17T05:34:19.042Z,12.70
2022-10-17T05:36:45.670Z,12.70
2022-10-17T05:39:14.755Z,12.70
2022-10-17T05:41:41.391Z,12.70
2022-10-17T05:44:07.995Z,12.70
2022-10-17T05:46:34.609Z,12.70
2022-10-17T05:49:01.228Z,12.70
2022-10-17T05:51:27.944Z,12.70
2022-10-17T05:53:54.634Z,12.70
2022-10-17T05:56:21.264Z,12.60
2022-10-17T05:58:50.921Z,12.60
2022-10-17T06:01:19.536Z,12.60
2022-10-17T06:03:46.449Z,12.50
2022-10-17T06:06:14.454Z,12.60
2022-10-17T06:08:41.270Z,12.60
2022-10-17T06:11:10.164Z,12.60
2022-10-17T06:13:38.115Z,12.60
2022-10-17T06:16:05.330Z,12.60
2022-10-17T06:18:32.374Z,12.60
2022-10-17T06:21:07.040Z,12.70
2022-10-17T06:23:34.041Z,12.70
2022-10-17T06:26:02.163Z,12.80
2022-10-17T06:28:29.356Z,12.80
2022-10-17T06:30:56.143Z,12.90
2022-10-17T06:33:23.397Z,12.80
2022-10-17T06:35:54.657Z,13.00
2022-10-17T06:38:22.081Z,13.00
2022-10-17T06:40:49.103Z,13.10
2022-10-17T06:43:15.893Z,13.00
2022-10-17T06:45:42.748Z,13.10
2022-10-17T06:48:09.429Z,13.10
2022-10-17T06:50:36.049Z,13.20
2022-10-17T06:53:02.762Z,13.20
2022-10-17T06:55:30.619Z,13.20
2022-10-17T06:57:57.381Z,13.30
2022-10-17T07:00:24.378Z,13.40
2022-10-17T07:02:51.018Z,13.40
2022-10-17T07:05:19.157Z,13.50
2022-10-17T07:07:47.532Z,13.60
2022-10-17T07:10:18.422Z,13.70
2022-10-17T07:12:45.794Z,13.80
2022-10-17T07:15:12.591Z,13.80
2022-10-17T07:17:39.427Z,13.90
2022-10-17T07:20:06.697Z,14.00
2022-10-17T07:22:33.396Z,14.10
2022-10-17T07:25:00.039Z,14.20
2022-10-17T07:27:26.905Z,14.30
2022-10-17T07:29:53.766Z,14.40
2022-10-17T07:32:20.411Z,14.50
2022-10-17T07:34:47.049Z,14.60
2022-10-17T07:37:13.689Z,14.80
2022-10-17T07:39:40.359Z,14.90
2022-10-17T07:42:09.955Z,15.00
2022-10-17T07:44:36.653Z,15.20
2022-10-17T07:47:03.376Z,15.40
2022-10-17T07:49:30.955Z,15.50
2022-10-17T07:51:57.598Z,15.70
2022-10-17T07:54:24.263Z,15.90
2022-10-17T07:56:50.979Z,16.20
2022-10-17T07:59:18.799Z,16.50
2022-10-17T08:01:45.521Z,16.70
2022-10-17T08:04:12.240Z,16.90
2022-10-17T08:06:39.083Z,17.20
2022-10-17T08:09:06.591Z,17.50
2022-10-17T08:11:33.298Z,17.70
2022-10-17T08:13:59.927Z,18.00
2022-10-17T08:16:26.603Z,18.20
2022-10-17T08:18:53.294Z,18.40
2022-10-17T08:21:19.948Z,18.50
2022-10-17T08:23:46.691Z,18.70
2022-10-17T08:26:16.738Z,19.00
2022-10-17T08:28:43.553Z,19.70
2022-10-17T08:31:13.463Z,20.60
2022-10-17T08:33:41.316Z,21.10
2022-10-17T08:36:09.211Z,21.50
2022-10-17T08:38:37.602Z,22.20
2022-10-17T08:41:11.794Z,22.40
2022-10-17T08:43:52.602Z,22.80
2022-10-17T08:46:20.393Z,23.20
2022-10-17T08:48:49.400Z,23.70
2022-10-17T08:51:28.127Z,24.00
2022-10-17T08:54:05.206Z,24.50
2022-10-17T08:56:48.976Z,25.30
2022-10-17T08:59:30.328Z,26.10
2022-10-17T09:01:59.753Z,27.10
2022-10-17T09:04:45.351Z,27.70
2022-10-17T09:07:49.659Z,28.00
2022-10-17T09:10:46.604Z,28.50
2022-10-17T09:13:29.693Z,28.30
2022-10-17T09:16:02.843Z,28.00
2022-10-17T09:18:35.152Z,27.50
2022-10-17T09:21:20.803Z,27.50
2022-10-17T09:24:08.814Z,28.00
2022-10-17T09:26:36.442Z,29.20
2022-10-17T09:29:10.612Z,29.60
2022-10-17T09:31:46.006Z,29.30
2022-10-17T09:34:12.681Z,29.50
2022-10-17T09:36:40.832Z,29.60
2022-10-17T09:39:22.874Z,30.50
2022-10-17T09:42:00.918Z,30.70
2022-10-17T09:44:30.268Z,30.60
2022-10-17T09:47:06.384Z,30.90
2022-10-17T09:49:35.797Z,31.20
2022-10-17T09:52:11.739Z,30.90
2022-10-17T09:54:46.823Z,31.20
2022-10-17T09:57:15.053Z,31.30
2022-10-17T10:00:06.155Z,31.80
2022-10-17T10:02:36.362Z,31.90
2022-10-17T10:05:18.809Z,32.80
2022-10-17T10:08:04.373Z,33.50
2022-10-17T10:10:32.119Z,33.30
2022-10-17T10:13:04.900Z,33.80
2022-10-17T10:15:41.135Z,34.30
2022-10-17T10:18:26.589Z,34.50
2022-10-17T10:21:13.451Z,34.70
2022-10-17T10:23:45.303Z,35.10
2022-10-17T10:26:17.822Z,34.60
2022-10-17T10:29:02.697Z,35.20
2022-10-17T10:31:38.408Z,35.30
2022-10-17T10:34:22.964Z,35.10
2022-10-17T10:37:23.493Z,34.30
2022-10-17T10:40:03.864Z,34.70
2022-10-17T10:42:39.265Z,35.10
2022-10-17T10:45:29.403Z,35.60
2022-10-17T10:48:21.294Z,36.30
2022-10-17T10:50:53.541Z,36.40
2022-10-17T10:53:43.839Z,36.90
2022-10-17T10:56:19.133Z,37.30
2022-10-17T10:59:09.246Z,37.30
2022-10-17T11:01:41.894Z,37.00
2022-10-17T11:04:40.945Z,36.50
2022-10-17T11:07:13.642Z,36.90
2022-10-17T11:09:56.284Z,37.60
2022-10-17T11:12:35.102Z,38.30
2022-10-17T11:15:20.318Z,38.50
2022-10-17T11:18:02.705Z,38.60
2022-10-17T11:21:03.616Z,38.60
2022-10-17T11:24:31.030Z,38.10
2022-10-17T11:27:03.701Z,37.10
2022-10-17T11:29:33.846Z,37.30
2022-10-17T11:32:06.584Z,37.40
2022-10-17T11:34:39.424Z,37.10
2022-10-17T11:37:14.827Z,36.70
2022-10-17T11:39:55.978Z,36.90
2022-10-17T11:42:39.442Z,36.20
2022-10-17T11:45:12.049Z,37.00
2022-10-17T11:47:46.703Z,36.90
2022-10-17T11:53:28.581Z,36.90
2022-10-17T11:55:59.068Z,37.30
2022-10-17T11:58:55.017Z,37.40
2022-10-17T12:01:32.519Z,38.10
2022-10-17T12:04:03.042Z,38.10
2022-10-17T12:06:57.898Z,38.50
2022-10-17T12:09:42.565Z,38.80
2022-10-17T12:12:09.502Z,38.40
2022-10-17T12:14:46.742Z,38.00
2022-10-17T12:17:25.331Z,38.10
2022-10-17T12:19:52.007Z,37.70
2022-10-17T12:22:26.372Z,37.10
2022-10-17T12:24:57.408Z,36.70
2022-10-17T12:27:47.278Z,37.40
2022-10-17T12:30:23.299Z,37.70
2022-10-17T12:33:06.558Z,36.60
2022-10-17T12:35:36.685Z,35.80
2022-10-17T12:38:17.283Z,35.20
2022-10-17T12:40:48.424Z,35.00
2022-10-17T12:43:17.865Z,34.80
2022-10-17T12:45:53.100Z,35.00
2022-10-17T12:48:34.773Z,34.00
2022-10-17T12:51:34.272Z,33.90
2022-10-17T12:54:01.779Z,33.80
2022-10-17T12:56:45.618Z,34.40
2022-10-17T12:59:17.980Z,34.10
2022-10-17T13:01:48.073Z,34.10
2022-10-17T13:04:15.458Z,34.00
2022-10-17T13:06:54.165Z,33.80
2022-10-17T13:09:36.883Z,33.80
2022-10-17T13:12:11.000Z,33.90
2022-10-17T13:14:40.969Z,34.00
2022-10-17T13:17:20.564Z,34.20
2022-10-17T13:19:47.265Z,34.60
2022-10-17T13:22:21.320Z,34.40
2022-10-17T13:24:50.112Z,34.00
2022-10-17T13:27:32.449Z,33.40
2022-10-17T13:30:01.735Z,32.80
2022-10-17T13:32:37.770Z,32.10
2022-10-17T13:35:11.181Z,31.70
2022-10-17T13:37:41.390Z,31.40
2022-10-17T13:40:37.802Z,31.30
2022-10-17T13:43:05.878Z,31.20
2022-10-17T13:45:36.812Z,31.30
2022-10-17T13:48:06.693Z,31.10
2022-10-17T13:50:44.513Z,31.00
2022-10-17T13:53:29.309Z,30.90
2022-10-17T13:56:26.899Z,30.50
2022-10-17T13:58:59.885Z,30.10
2022-10-17T14:01:28.668Z,29.60
2022-10-17T14:04:07.841Z,29.40
2022-10-17T14:06:45.020Z,29.10
2022-10-17T14:09:40.813Z,29.00
2022-10-17T14:12:16.557Z,28.80
2022-10-17T14:15:09.259Z,28.60
2022-10-17T14:17:36.043Z,28.40
2022-10-17T14:20:40.367Z,28.30
2022-10-17T14:23:17.460Z,28.20
2022-10-17T14:25:40.319Z,28.10
2022-10-17T14:28:14.371Z,28.10
2022-10-17T14:30:56.908Z,28.10
2022-10-17T14:33:27.968Z,28.10
2022-10-17T14:35:58.056Z,28.10
2022-10-17T14:38:25.169Z,28.00
2022-10-17T14:41:37.417Z,27.70
2022-10-17T14:44:04.588Z,27.40
2022-10-17T14:46:31.271Z,27.30
2022-10-17T14:49:14.067Z,27.30
2022-10-17T14:51:50.622Z,27.50
2022-10-17T14:54:32.677Z,27.80
2022-10-17T14:56:59.305Z,27.90
2022-10-17T14:59:52.273Z,27.70
2022-10-17T15:02:13.479Z,27.50
2022-10-17T15:04:40.257Z,27.40
2022-10-17T15:07:06.941Z,27.30
2022-10-17T15:09:33.612Z,27.10
2022-10-17T15:12:02.589Z,27.00
2022-10-17T15:14:30.112Z,26.90
2022-10-17T15:16:56.776Z,26.70
2022-10-17T15:19:23.453Z,26.60
2022-10-17T15:21:50.094Z,26.60
2022-10-17T15:24:16.747Z,26.80
2022-10-17T15:26:43.569Z,26.90
2022-10-17T15:29:15.207Z,26.90
2022-10-17T15:31:41.939Z,27.00
2022-10-17T15:34:08.578Z,26.80
2022-10-17T15:36:48.157Z,26.50
2022-10-17T15:39:14.785Z,26.30
2022-10-17T15:41:41.414Z,26.10
2022-10-17T15:44:08.065Z,26.00
2022-10-17T15:46:35.517Z,26.00
2022-10-17T15:49:05.693Z,26.00
2022-10-17T15:51:32.320Z,25.80
2022-10-17T15:54:01.444Z,25.60
2022-10-17T15:56:31.824Z,25.30
2022-10-17T15:58:58.717Z,25.10
2022-10-17T16:01:29.032Z,24.90
2022-10-17T16:03:56.384Z,24.70
2022-10-17T16:06:24.178Z,24.50
2022-10-17T16:08:51.248Z,24.40
2022-10-17T16:11:24.189Z,24.30
2022-10-17T16:13:54.773Z,24.10
2022-10-17T16:16:22.469Z,24.00
2022-10-17T16:18:49.421Z,23.90
2022-10-17T16:21:17.815Z,23.70
2022-10-17T16:23:44.981Z,23.50
2022-10-17T16:26:15.786Z,23.40
2022-10-17T16:28:46.199Z,23.20
2022-10-17T16:31:22.539Z,23.00
2022-10-17T16:33:52.179Z,22.80
2022-10-17T16:36:19.515Z,22.60
2022-10-17T16:38:47.099Z,22.40
2022-10-17T16:41:35.134Z,22.30
2022-10-17T16:44:04.680Z,22.20
2022-10-17T16:46:32.481Z,22.00
2022-10-17T16:48:59.554Z,21.90
2022-10-17T16:51:26.396Z,21.70
2022-10-17T16:53:56.319Z,21.60
2022-10-17T16:56:24.783Z,21.60
2022-10-17T16:58:51.840Z,21.50
2022-10-17T17:01:23.163Z,21.40
2022-10-17T17:03:50.638Z,21.30
2022-10-17T17:06:26.686Z,21.30
2022-10-17T17:08:54.740Z,21.20
2022-10-17T17:11:23.022Z,21.10
2022-10-17T17:13:50.224Z,21.00
2022-10-17T17:16:22.235Z,21.00
2022-10-17T17:18:51.895Z,21.00
2022-10-17T17:21:18.558Z,21.00
2022-10-17T17:23:45.164Z,21.00
2022-10-17T17:26:17.787Z,21.00
2022-10-17T17:28:44.902Z,20.90
2022-10-17T17:31:14.339Z,20.80
2022-10-17T17:33:41.958Z,20.80
2022-10-17T17:36:13.045Z,20.70
2022-10-17T17:38:41.189Z,20.60
2022-10-17T17:41:08.160Z,20.50
2022-10-17T17:43:35.789Z,20.50
2022-10-17T17:46:02.480Z,20.40
2022-10-17T17:48:29.599Z,20.50
2022-10-17T17:50:56.701Z,20.40
2022-10-17T17:53:23.849Z,20.40
2022-10-17T17:56:05.107Z,20.40
2022-10-17T17:58:32.453Z,20.40
2022-10-17T18:00:59.524Z,20.30
2022-10-17T18:03:26.893Z,20.30
2022-10-17T18:05:54.024Z,20.30
2022-10-17T18:08:20.910Z,20.20
2022-10-17T18:10:54.384Z,20.20
2022-10-17T18:13:21.012Z,20.20
2022-10-17T18:15:51.561Z,20.20
2022-10-17T18:18:19.053Z,20.10
2022-10-17T18:20:45.685Z,20.20
2022-10-17T18:23:12.446Z,20.10
2022-10-17T18:25:39.203Z,20.10
2022-10-17T18:28:05.919Z,20.00
2022-10-17T18:30:34.446Z,20.00
2022-10-17T18:33:01.269Z,19.90
2022-10-17T18:35:28.034Z,19.90
2022-10-17T18:37:56.876Z,19.90
2022-10-17T18:40:23.574Z,19.90
2022-10-17T18:42:50.209Z,19.90
2022-10-17T18:45:17.391Z,19.80
2022-10-17T18:47:47.085Z,19.80
2022-10-17T18:50:14.516Z,19.80
2022-10-17T18:52:41.151Z,19.70
2022-10-17T18:55:08.304Z,19.70
2022-10-17T18:57:34.954Z,19.70
2022-10-17T19:00:01.637Z,19.70
2022-10-17T19:02:28.341Z,19.60
2022-10-17T19:04:54.973Z,19.60
2022-10-17T19:07:21.623Z,19.60
2022-10-17T19:09:48.799Z,19.70
2022-10-17T19:12:15.682Z,19.60
2022-10-17T19:14:42.300Z,19.60
2022-10-17T19:17:08.976Z,19.50
2022-10-17T19:19:36.019Z,19.50
2022-10-17T19:22:03.456Z,19.50
2022-10-17T19:24:30.177Z,19.40
2022-10-17T19:26:59.255Z,19.40
2022-10-17T19:29:28.259Z,19.30
2022-10-17T19:34:22.547Z,19.30
2022-10-17T19:36:49.183Z,19.30
2022-10-17T19:39:18.675Z,19.20
2022-10-17T19:41:47.211Z,19.20
2022-10-17T19:44:14.277Z,19.20
2022-10-17T19:46:41.202Z,19.20
2022-10-17T19:49:07.858Z,19.10
2022-10-17T19:51:34.714Z,19.10
2022-10-17T19:54:01.629Z,19.00
2022-10-17T19:56:30.919Z,19.00
2022-10-17T19:58:58.159Z,19.00
2022-10-17T20:01:31.462Z,19.00
2022-10-17T20:03:58.155Z,19.00
2022-10-17T20:06:24.981Z,19.00
2022-10-17T20:08:51.927Z,19.00
2022-10-17T20:11:21.432Z,19.00
2022-10-17T20:13:48.494Z,19.00
2022-10-17T20:16:21.329Z,19.00
2022-10-17T20:18:53.305Z,19.00
2022-10-17T20:21:23.251Z,19.00
2022-10-17T20:23:50.604Z,19.10
2022-10-17T20:29:20.716Z,19.00
2022-10-17T20:31:48.330Z,19.00
2022-10-17T20:34:16.962Z,19.00
2022-10-17T20:36:43.999Z,19.00
2022-10-17T20:39:12.855Z,19.00
2022-10-17T20:41:40.391Z,19.00
2022-10-17T20:44:07.103Z,19.00
2022-10-17T20:46:37.351Z,19.00
2022-10-17T20:49:06.716Z,19.00
2022-10-17T20:51:34.089Z,19.00
2022-10-17T20:54:00.780Z,19.00
2022-10-17T20:56:29.546Z,19.00
2022-10-17T20:59:05.859Z,19.10
2022-10-17T21:01:33.957Z,19.00
2022-10-17T21:04:21.451Z,19.10
2022-10-17T21:06:48.250Z,19.10
2022-10-17T21:09:14.989Z,19.10
2022-10-17T21:11:43.043Z,19.10
2022-10-17T21:14:11.358Z,19.10
2022-10-17T21:16:39.337Z,19.00
2022-10-17T21:19:06.279Z,19.00
2022-10-17T21:21:36.753Z,19.00
2022-10-17T21:24:05.900Z,19.10
2022-10-17T21:26:34.973Z,19.10
2022-10-17T21:29:05.556Z,19.10
2022-10-17T21:31:34.538Z,19.10
2022-10-17T21:34:21.408Z,19.10
2022-10-17T21:36:48.419Z,19.10
2022-10-17T21:39:15.744Z,19.10
2022-10-17T21:41:43.288Z,19.10
2022-10-17T21:44:15.519Z,19.00
2022-10-17T21:46:42.894Z,19.00
2022-10-17T21:49:12.065Z,19.00
2022-10-17T21:51:38.786Z,19.00
2022-10-17T21:54:06.038Z,19.00
2022-10-17T21:56:34.646Z,19.10
2022-10-17T21:59:01.830Z,19.00
2022-10-17T22:01:31.195Z,19.00
2022-10-17T22:04:01.173Z,18.90
2022-10-17T22:06:39.743Z,19.00
2022-10-17T22:09:13.656Z,19.10
2022-10-17T22:11:40.545Z,19.00
2022-10-17T22:14:10.991Z,19.10
2022-10-17T22:16:38.403Z,19.10
2022-10-17T22:19:06.869Z,19.10
2022-10-17T22:21:35.777Z,19.00
2022-10-17T22:24:05.736Z,19.00
2022-10-17T22:26:34.381Z,19.00
2022-10-17T22:29:01.625Z,19.00
2022-10-17T22:31:28.399Z,19.00
2022-10-17T22:33:55.574Z,19.00
2022-10-17T22:36:22.206Z,19.00
2022-10-17T22:38:48.837Z,18.90
2022-10-17T22:41:15.553Z,18.90
2022-10-17T22:43:42.328Z,18.90
2022-10-17T22:46:12.890Z,18.90
2022-10-17T22:48:39.671Z,18.90
2022-10-17T22:51:06.395Z,18.80
2022-10-17T22:53:34.964Z,18.80
2022-10-17T22:56:05.243Z,18.70
2022-10-17T22:58:33.967Z,18.80
2022-10-17T23:01:01.093Z,18.80
2022-10-17T23:03:29.621Z,18.70
2022-10-17T23:05:56.798Z,18.70
2022-10-17T23:08:24.031Z,18.80
2022-10-17T23:10:50.677Z,18.70
2022-10-17T23:13:18.667Z,18.70
2022-10-17T23:15:45.907Z,18.70
2022-10-17T23:18:12.662Z,18.60
2022-10-17T23:20:39.291Z,18.60
2022-10-17T23:23:06.026Z,18.60
2022-10-17T23:25:35.691Z,18.60
2022-10-17T23:28:02.713Z,18.60
2022-10-17T23:30:31.366Z,18.60
2022-10-17T23:32:57.987Z,18.50
2022-10-17T23:35:24.684Z,18.60
2022-10-17T23:37:51.366Z,18.50
2022-10-17T23:40:18.257Z,18.50
2022-10-17T23:42:45.237Z,18.50
2022-10-17T23:45:12.101Z,18.60
2022-10-17T23:47:38.857Z,18.50
2022-10-17T23:50:06.023Z,18.50
2022-10-17T23:52:32.969Z,18.50
2022-10-17T23:54:59.723Z,18.50
2022-10-17T23:57:26.375Z,18.50
2022-10-17T23:59:53.143Z,18.50
